Time;durP1;ratioP1;P1;durP2;ratioP2;P2;SDS_P1;SDS_P2;PMS_P1;PMS_P2;Temp;Humidity;BMP_temperature;BMP_pressure;BME280_temperature;BME280_humidity;BME280_pressure;Samples;Min_cycle;Max_cycle;Signal;HPM_P1;HPM_P2
2022/10/06 00:00:52;;;;;;;;;;;;;;;25.89;44.99;95223.03;4859678;29;9115;-61
2022/10/06 00:03:23;;;;;;;;;;;;;;;25.88;45.52;95233.31;4858393;29;7268;-61
2022/10/06 00:06:05;;;;;;;;;;;;;;;25.90;44.98;95232.84;4865991;29;7577;-61
2022/10/06 00:08:34;;;;;;;;;;;;;;;25.89;45.46;95228.56;4926354;29;7211;-61
2022/10/06 00:11:03;;;;;;;;;;;;;;;25.88;44.70;95233.31;4925724;29;9325;-61
2022/10/06 00:13:36;;;;;;;;;;;;;;;25.88;45.56;95233.31;4892839;29;7219;-61
2022/10/06 00:16:16;;;;;;;;;;;;;;;25.87;45.07;95242.06;4914875;29;7008;-60
2022/10/06 00:18:52;;;;;;;;;;;;;;;25.85;45.08;95242.56;4899869;28;7067;-61
2022/10/06 00:21:19;;;;;;;;;;;;;;;25.86;45.44;95244.06;5016343;28;6998;-61
2022/10/06 00:23:49;;;;;;;;;;;;;;;25.85;44.79;95242.56;5021891;28;7188;-61
2022/10/06 00:26:16;;;;;;;;;;;;;;;25.86;45.14;95249.56;5002624;28;7044;-61
2022/10/06 00:28:48;;;;;;;;;;;;;;;25.87;45.27;95251.09;5001468;28;6941;-61
2022/10/06 00:31:21;;;;;;;;;;;;;;;25.87;44.92;95244.84;4994872;28;9358;-61
2022/10/06 00:33:53;;;;;;;;;;;;;;;25.86;45.34;95246.09;5021298;28;9296;-61
2022/10/06 00:36:27;;;;;;;;;;;;;;;25.83;45.20;95247.06;4991227;28;7165;-60
2022/10/06 00:38:57;;;;;;;;;;;;;;;25.84;45.22;95254.06;5006238;28;7335;-61
2022/10/06 00:41:23;;;;;;;;;;;;;;;25.86;45.12;95251.59;4996464;28;10035;-61
2022/10/06 00:43:52;;;;;;;;;;;;;;;25.83;45.74;95250.59;5003296;28;7550;-61
2022/10/06 00:46:37;;;;;;;;;;;;;;;25.83;44.75;95252.56;4996594;28;7158;-60
2022/10/06 00:49:17;;;;;;;;;;;;;;;25.82;45.68;95251.06;4989965;28;9255;-60
2022/10/06 00:51:50;;;;;;;;;;;;;;;25.82;45.12;95251.81;5010303;28;7016;-61
2022/10/06 00:54:35;;;;;;;;;;;;;;;25.80;45.06;95251.56;4996752;28;7567;-60
2022/10/06 00:57:07;;;;;;;;;;;;;;;25.81;45.08;95252.31;4988668;28;9426;-60
2022/10/06 00:59:40;;;;;;;;;;;;;;;25.80;45.42;95251.56;5001910;28;7344;-60
2022/10/06 01:02:20;;;;;;;;;;;;;;;25.82;44.93;95251.06;4990400;28;7427;-60
2022/10/06 01:05:02;;;;;;;;;;;;;;;25.83;45.67;95249.81;4991526;28;8794;-60
2022/10/06 01:07:29;;;;;;;;;;;;;;;25.82;45.68;95248.28;4967133;28;6940;-60
2022/10/06 01:10:02;;;;;;;;;;;;;;;25.81;45.12;95260.59;4996992;28;7511;-61
2022/10/06 01:12:32;;;;;;;;;;;;;;;25.80;44.85;95248.78;4994564;28;7216;-60
2022/10/06 01:15:01;;;;;;;;;;;;;;;25.79;45.03;95255.56;4996942;28;7100;-60
2022/10/06 01:17:54;;;;;;;;;;;;;;;25.80;45.55;95253.53;5012287;28;7194;-60
2022/10/06 01:20:21;;;;;;;;;;;;;;;25.79;45.36;95250.06;4994044;28;7320;-60
2022/10/06 01:22:54;;;;;;;;;;;;;;;25.79;45.06;95257.56;4991397;28;9021;-60
2022/10/06 01:25:22;;;;;;;;;;;;;;;25.77;45.62;95257.31;5020178;28;8995;-60
2022/10/06 01:28:03;;;;;;;;;;;;;;;25.78;44.91;95254.03;4994530;28;9057;-61
2022/10/06 01:30:38;;;;;;;;;;;;;;;25.78;45.20;95254.03;5009717;28;7236;-61
2022/10/06 01:33:18;;;;;;;;;;;;;;;25.78;45.44;95248.53;4986224;28;7146;-60
2022/10/06 01:35:53;;;;;;;;;;;;;;;25.77;45.33;95257.31;4997541;28;7190;-61
2022/10/06 01:38:51;;;;;;;;;;;;;;;25.76;45.53;95251.03;5006757;28;7158;-60
2022/10/06 01:41:18;;;;;;;;;;;;;;;25.76;45.26;95251.03;4943850;28;7304;-61
2022/10/06 01:43:44;;;;;;;;;;;;;;;25.77;45.13;95252.56;4927056;28;7235;-61
2022/10/06 01:46:12;;;;;;;;;;;;;;;25.76;45.56;95256.53;4932283;28;9992;-60
2022/10/06 01:48:56;;;;;;;;;;;;;;;25.74;45.53;95261.03;4924710;29;9493;-61
2022/10/06 01:51:30;;;;;;;;;;;;;;;25.74;45.08;95269.28;4933211;28;9397;-61
2022/10/06 01:54:05;;;;;;;;;;;;;;;25.75;45.71;95265.31;4926548;29;7157;-61
2022/10/06 01:57:09;;;;;;;;;;;;;;;25.75;45.17;95259.78;4918914;29;7220;-61
2022/10/06 01:59:38;;;;;;;;;;;;;;;25.73;45.39;95260.28;4936197;28;7227;-60
2022/10/06 02:02:06;;;;;;;;;;;;;;;25.74;45.53;95266.53;4938177;28;9336;-59
2022/10/06 02:04:45;;;;;;;;;;;;;;;25.73;45.18;95267.81;4913991;29;7703;-60
2022/10/06 02:07:12;;;;;;;;;;;;;;;25.72;45.15;95264.28;4917554;29;9086;-59
2022/10/06 02:09:39;;;;;;;;;;;;;;;25.71;45.38;95270.28;4930727;28;7257;-60
2022/10/06 02:12:12;;;;;;;;;;;;;;;25.71;45.24;95268.28;4916777;29;7236;-60
2022/10/06 02:14:51;;;;;;;;;;;;;;;25.72;45.27;95266.28;4933257;28;8958;-60
2022/10/06 02:17:19;;;;;;;;;;;;;;;25.72;44.72;95261.53;4931173;28;7172;-60
2022/10/06 02:19:48;;;;;;;;;;;;;;;25.71;45.18;95265.50;4935650;28;8222;-60
2022/10/06 02:22:23;;;;;;;;;;;;;;;25.73;44.76;95273.31;4946395;28;7263;-59
2022/10/06 02:25:03;;;;;;;;;;;;;;;25.71;44.69;95276.53;4950186;28;7428;-60
2022/10/06 02:27:41;;;;;;;;;;;;;;;25.69;45.62;95281.78;4942647;28;7551;-60
2022/10/06 02:30:08;;;;;;;;;;;;;;;25.70;45.66;95280.56;4951414;28;7209;-59
2022/10/06 02:32:38;;;;;;;;;;;;;;;25.70;45.25;95279.78;4932788;28;7214;-60
2022/10/06 02:35:31;;;;;;;;;;;;;;;25.70;44.73;95280.56;5017861;28;7072;-60
2022/10/06 02:38:04;;;;;;;;;;;;;;;25.68;44.92;95288.56;4990540;28;6975;-59
2022/10/06 02:40:39;;;;;;;;;;;;;;;25.67;45.09;95284.28;4993472;28;7246;-60
2022/10/06 02:43:05;;;;;;;;;;;;;;;25.68;45.26;95283.03;4984452;28;6945;-60
2022/10/06 02:45:33;;;;;;;;;;;;;;;25.67;44.84;95292.53;5001103;28;9021;-59
2022/10/06 02:48:03;;;;;;;;;;;;;;;25.67;45.67;95292.53;4999288;28;7204;-60
2022/10/06 02:50:29;;;;;;;;;;;;;;;25.67;44.98;95298.06;5021540;28;8568;-60
2022/10/06 02:53:07;;;;;;;;;;;;;;;25.68;45.14;95305.09;4993618;28;7167;-59
2022/10/06 02:55:37;;;;;;;;;;;;;;;25.67;45.35;95308.31;5009164;28;7208;-59
2022/10/06 02:58:10;;;;;;;;;;;;;;;25.65;45.34;95319.84;5002422;28;8209;-59
2022/10/06 03:01:06;;;;;;;;;;;;;;;25.65;45.19;95324.59;4982777;28;7286;-59
2022/10/06 03:03:34;;;;;;;;;;;;;;;25.64;45.61;95321.09;4988006;28;7028;-59
2022/10/06 03:06:21;;;;;;;;;;;;;;;25.65;45.32;95327.34;4987685;28;7207;-60
2022/10/06 03:09:09;;;;;;;;;;;;;;;25.66;45.04;95328.84;4993629;28;9085;-60
2022/10/06 03:11:44;;;;;;;;;;;;;;;25.66;45.08;95331.63;4986369;28;9044;-59
2022/10/06 03:14:10;;;;;;;;;;;;;;;25.65;44.80;95333.59;4994413;28;7563;-60
2022/10/06 03:16:41;;;;;;;;;;;;;;;25.66;45.14;95337.88;5009555;28;7181;-59
2022/10/06 03:19:14;;;;;;;;;;;;;;;25.64;45.02;95343.13;5002320;28;7795;-59
2022/10/06 03:21:49;;;;;;;;;;;;;;;25.63;44.88;95338.09;4991765;28;7240;-60
2022/10/06 03:24:21;;;;;;;;;;;;;;;25.64;45.63;95348.63;5010660;28;7816;-59
2022/10/06 03:26:47;;;;;;;;;;;;;;;25.63;45.36;95347.13;4991537;28;7393;-59
2022/10/06 03:29:16;;;;;;;;;;;;;;;25.63;45.54;95343.59;5006859;28;6918;-59
2022/10/06 03:31:47;;;;;;;;;;;;;;;25.64;45.02;95347.88;5010839;28;7427;-59
2022/10/06 03:34:19;;;;;;;;;;;;;;;25.63;44.72;95349.09;4985954;28;7344;-60
2022/10/06 03:36:45;;;;;;;;;;;;;;;25.63;45.04;95352.63;4995819;28;8185;-60
2022/10/06 03:39:29;;;;;;;;;;;;;;;25.62;44.96;95356.63;5011879;28;7047;-60
2022/10/06 03:41:55;;;;;;;;;;;;;;;25.61;45.69;95346.84;5006102;28;9391;-60
2022/10/06 03:44:21;;;;;;;;;;;;;;;25.62;45.57;95350.38;5004641;28;7432;-59
2022/10/06 03:46:50;;;;;;;;;;;;;;;25.62;44.79;95347.63;4997059;28;9236;-60
2022/10/06 03:49:15;;;;;;;;;;;;;;;25.60;45.30;95352.84;5014962;28;7364;-60
2022/10/06 03:51:41;;;;;;;;;;;;;;;25.60;45.13;95356.34;5005434;28;6969;-60
2022/10/06 03:54:09;;;;;;;;;;;;;;;25.60;44.99;95364.63;5010264;28;7343;-60
2022/10/06 03:56:40;;;;;;;;;;;;;;;25.61;45.46;95359.88;5001900;28;7438;-60
2022/10/06 03:59:11;;;;;;;;;;;;;;;25.60;45.30;95361.13;4991628;28;7232;-59
2022/10/06 04:01:54;;;;;;;;;;;;;;;25.59;44.80;95357.59;5009156;28;6966;-59
2022/10/06 04:04:28;;;;;;;;;;;;;;;25.59;44.97;95362.34;4991350;28;7207;-59
2022/10/06 04:06:54;;;;;;;;;;;;;;;25.59;45.24;95360.38;4997560;28;6996;-60
2022/10/06 04:09:20;;;;;;;;;;;;;;;25.60;45.34;95363.88;4997348;28;7536;-59
2022/10/06 04:11:46;;;;;;;;;;;;;;;25.59;44.86;95360.38;4994340;28;7138;-60
2022/10/06 04:14:15;;;;;;;;;;;;;;;25.59;44.86;95365.88;4992429;28;7245;-60
2022/10/06 04:16:43;;;;;;;;;;;;;;;25.61;45.03;95362.63;4984324;28;7223;-60
2022/10/06 04:19:12;;;;;;;;;;;;;;;25.59;45.34;95374.13;5000566;28;7280;-60
2022/10/06 04:21:46;;;;;;;;;;;;;;;25.59;44.65;95373.38;4987595;28;7234;-60
2022/10/06 04:24:22;;;;;;;;;;;;;;;25.58;45.22;95372.59;4992050;28;7234;-59
2022/10/06 04:27:26;;;;;;;;;;;;;;;25.57;44.72;95376.63;4998131;28;7241;-60
2022/10/06 04:29:50;;;;;;;;;;;;;;;25.60;44.85;95375.63;4997210;28;6919;-60
2022/10/06 04:32:34;;;;;;;;;;;;;;;25.59;44.76;95385.16;4980675;28;7474;-59
2022/10/06 04:35:12;;;;;;;;;;;;;;;25.57;44.82;95387.66;4998178;28;7608;-60
2022/10/06 04:37:47;;;;;;;;;;;;;;;25.54;45.34;95385.84;4996461;28;7306;-59
2022/10/06 04:40:13;;;;;;;;;;;;;;;25.55;44.96;95394.88;4991234;28;9116;-60
2022/10/06 04:42:39;;;;;;;;;;;;;;;25.53;45.54;95392.63;4989573;28;9803;-60
2022/10/06 04:45:10;;;;;;;;;;;;;;;25.52;44.68;95388.34;4987764;28;7736;-59
2022/10/06 04:47:39;;;;;;;;;;;;;;;25.51;45.35;95389.59;4984821;28;7223;-59
2022/10/06 04:50:05;;;;;;;;;;;;;;;25.49;45.64;95394.81;4992442;28;7208;-59
2022/10/06 04:52:31;;;;;;;;;;;;;;;25.50;44.92;95415.63;4989363;28;7032;-59
2022/10/06 04:54:57;;;;;;;;;;;;;;;25.49;45.08;95418.88;4988502;28;7056;-59
2022/10/06 04:57:22;;;;;;;;;;;;;;;25.50;44.91;95410.09;5000523;28;7255;-60
2022/10/06 05:02:36;;;;;;;;;;;;;;;25.50;45.34;95415.63;5002113;28;7170;-60
2022/10/06 05:05:05;;;;;;;;;;;;;;;25.49;45.50;95414.09;5006137;28;7127;-59
2022/10/06 05:07:31;;;;;;;;;;;;;;;25.47;45.38;95424.84;4988445;28;7386;-60
2022/10/06 05:10:00;;;;;;;;;;;;;;;25.46;45.86;95417.06;4997600;28;7284;-60
2022/10/06 05:12:39;;;;;;;;;;;;;;;25.49;45.93;95424.38;4997293;28;6991;-60
2022/10/06 05:15:09;;;;;;;;;;;;;;;25.49;45.26;95422.34;5010113;28;6844;-60
2022/10/06 05:17:39;;;;;;;;;;;;;;;25.49;45.70;95424.38;5001796;28;7094;-60
2022/10/06 05:20:10;;;;;;;;;;;;;;;25.50;45.61;95425.88;4993553;28;8196;-60
2022/10/06 05:22:42;;;;;;;;;;;;;;;25.50;45.28;95434.13;5005080;28;7209;-60
2022/10/06 05:25:17;;;;;;;;;;;;;;;25.49;45.25;95435.41;5010576;28;6923;-60
2022/10/06 05:27:43;;;;;;;;;;;;;;;25.47;46.09;95438.59;4986631;28;8241;-60
2022/10/06 05:30:21;;;;;;;;;;;;;;;25.47;45.54;95446.13;4991461;28;7822;-60
2022/10/06 05:32:49;;;;;;;;;;;;;;;25.47;45.12;95443.38;4999878;28;8130;-60
2022/10/06 05:35:23;;;;;;;;;;;;;;;25.47;45.78;95443.38;5009742;28;7288;-60
2022/10/06 05:37:58;;;;;;;;;;;;;;;25.47;44.97;95448.91;4982027;28;7010;-60
2022/10/06 05:40:33;;;;;;;;;;;;;;;25.46;45.42;95456.41;4991715;28;7217;-60
2022/10/06 05:42:59;;;;;;;;;;;;;;;25.45;44.97;95468.63;4988371;28;8388;-60
2022/10/06 05:45:24;;;;;;;;;;;;;;;25.45;44.87;95465.88;4987378;28;7127;-60
2022/10/06 05:47:55;;;;;;;;;;;;;;;25.42;45.48;95464.84;4995659;28;8176;-60
2022/10/06 05:50:22;;;;;;;;;;;;;;;25.43;44.54;95466.38;5001100;28;6994;-60
2022/10/06 05:52:56;;;;;;;;;;;;;;;25.42;44.89;95467.59;5003524;28;7458;-60
2022/10/06 05:55:37;;;;;;;;;;;;;;;25.43;44.89;95473.88;5008780;28;7104;-60
2022/10/06 05:58:14;;;;;;;;;;;;;;;25.42;44.69;95467.59;4995849;28;7004;-60
2022/10/06 06:01:08;;;;;;;;;;;;;;;25.44;44.75;95469.91;5013019;28;7334;-60
2022/10/06 06:03:48;;;;;;;;;;;;;;;25.43;44.79;95465.63;5002381;28;7041;-60
2022/10/06 06:06:16;;;;;;;;;;;;;;;25.47;44.89;95479.94;5010512;28;7191;-60
2022/10/06 06:08:45;;;;;;;;;;;;;;;25.46;45.04;95485.94;4983269;28;7193;-60
2022/10/06 06:11:26;;;;;;;;;;;;;;;25.46;44.73;95485.94;4989016;28;9036;-60
2022/10/06 06:14:14;;;;;;;;;;;;;;;25.45;45.07;95490.69;4997437;28;7279;-60
2022/10/06 06:16:44;;;;;;;;;;;;;;;25.43;44.87;95485.66;4994333;28;7270;-60
2022/10/06 06:19:13;;;;;;;;;;;;;;;25.42;44.36;95486.16;4994138;28;7690;-60
2022/10/06 06:21:41;;;;;;;;;;;;;;;25.42;44.99;95480.63;4985172;28;7240;-60
2022/10/06 06:24:15;;;;;;;;;;;;;;;25.42;44.65;95486.88;4981806;28;7324;-60
2022/10/06 06:26:55;;;;;;;;;;;;;;;25.40;44.92;95483.09;5015581;28;7852;-60
2022/10/06 06:29:22;;;;;;;;;;;;;;;25.38;44.75;95482.81;5000117;28;7344;-60
2022/10/06 06:31:53;;;;;;;;;;;;;;;25.39;44.84;95489.81;5000103;28;7494;-60
2022/10/06 06:34:24;;;;;;;;;;;;;;;25.37;44.88;95487.56;4994309;28;7271;-60
2022/10/06 06:36:57;;;;;;;;;;;;;;;25.37;44.62;95479.31;4990531;28;7242;-60
2022/10/06 06:39:29;;;;;;;;;;;;;;;25.36;45.10;95471.50;4996409;28;7261;-60
2022/10/06 06:42:03;;;;;;;;;;;;;;;25.34;45.36;95472.00;4997369;28;7483;-60
2022/10/06 06:44:29;;;;;;;;;;;;;;;25.35;45.13;95486.53;5014994;28;7144;-60
2022/10/06 06:46:55;;;;;;;;;;;;;;;25.35;45.85;95476.28;5000287;28;7340;-60
2022/10/06 06:49:21;;;;;;;;;;;;;;;25.34;45.35;95480.25;5004788;28;7210;-61
2022/10/06 06:51:49;;;;;;;;;;;;;;;25.35;45.37;95487.28;4995358;28;9092;-60
2022/10/06 06:54:26;;;;;;;;;;;;;;;25.36;45.30;95488.03;4994184;28;7150;-60
2022/10/06 06:57:19;;;;;;;;;;;;;;;25.37;45.99;95489.56;4989881;28;7307;-60
2022/10/06 06:59:51;;;;;;;;;;;;;;;25.38;45.45;95488.34;4966422;28;9391;-60
2022/10/06 07:02:17;;;;;;;;;;;;;;;25.38;45.25;95485.56;4971348;28;7230;-60
2022/10/06 07:04:52;;;;;;;;;;;;;;;25.39;45.53;95487.06;4974232;28;6961;-60
2022/10/06 07:07:19;;;;;;;;;;;;;;;25.36;46.07;95486.03;4960081;28;6972;-60
2022/10/06 07:09:54;;;;;;;;;;;;;;;25.36;46.00;95497.06;4987394;28;7371;-61
2022/10/06 07:12:28;;;;;;;;;;;;;;;25.39;46.30;95489.81;4982103;28;7081;-60
2022/10/06 07:26:35;;;;;;;;;;;;;;;25.40;45.84;95491.34;4990106;28;7272;-60
2022/10/06 07:29:11;;;;;;;;;;;;;;;25.40;46.41;95494.09;4971605;28;7880;-59
2022/10/06 07:31:48;;;;;;;;;;;;;;;25.40;45.72;95494.09;4965182;28;8810;-60
2022/10/06 07:34:14;;;;;;;;;;;;;;;25.40;46.15;95494.84;4970074;28;7126;-60
2022/10/06 07:36:49;;;;;;;;;;;;;;;25.40;46.04;95494.84;4997802;28;7460;-60
2022/10/06 07:39:27;;;;;;;;;;;;;;;25.42;46.07;95497.16;5010239;28;7392;-60
2022/10/06 07:41:54;;;;;;;;;;;;;;;25.43;45.58;95498.66;4991724;28;7227;-60
2022/10/06 07:44:22;;;;;;;;;;;;;;;25.43;45.58;95495.91;5007874;28;8904;-60
2022/10/06 07:46:48;;;;;;;;;;;;;;;25.41;45.62;95501.88;5020497;28;7107;-60
2022/10/06 07:49:16;;;;;;;;;;;;;;;25.42;45.64;95508.91;5005279;28;7229;-60
2022/10/06 07:51:45;;;;;;;;;;;;;;;25.43;45.99;95498.66;4988721;28;7360;-60
2022/10/06 07:54:16;;;;;;;;;;;;;;;25.41;45.27;95509.38;4995878;28;6975;-60
2022/10/06 07:56:42;;;;;;;;;;;;;;;25.41;46.29;95506.63;4990930;28;6995;-59
2022/10/06 07:59:34;;;;;;;;;;;;;;;25.41;46.55;95512.91;5000254;28;7533;-60
2022/10/06 08:02:29;;;;;;;;;;;;;;;25.42;46.61;95514.44;4905544;29;7488;-60
2022/10/06 08:05:10;;;;;;;;;;;;;;;25.42;46.54;95510.94;4895160;29;8048;-60
2022/10/06 08:07:50;;;;;;;;;;;;;;;25.41;46.43;95518.41;4890151;29;9648;-60
2022/10/06 08:10:34;;;;;;;;;;;;;;;25.41;46.19;95523.16;4894314;29;7250;-60
2022/10/06 08:13:09;;;;;;;;;;;;;;;25.42;46.46;95514.44;4894035;29;9153;-60
2022/10/06 08:15:48;;;;;;;;;;;;;;;25.41;45.75;95507.38;4875393;29;6973;-60
2022/10/06 08:18:16;;;;;;;;;;;;;;;25.39;46.50;95504.38;4880856;29;7198;-60
2022/10/06 08:21:13;;;;;;;;;;;;;;;25.38;46.26;95513.84;4878526;29;7287;-60
2022/10/06 08:23:49;;;;;;;;;;;;;;;25.37;46.08;95509.59;4844064;29;7290;-60
2022/10/06 08:26:32;;;;;;;;;;;;;;;25.37;46.06;95508.84;4854497;29;7298;-60
2022/10/06 08:29:01;;;;;;;;;;;;;;;25.38;45.56;95515.88;4839039;29;7238;-60
2022/10/06 08:31:29;;;;;;;;;;;;;;;25.39;45.72;95517.38;4830061;29;7033;-60
2022/10/06 08:34:02;;;;;;;;;;;;;;;25.38;45.78;95515.88;4834922;29;7509;-60
2022/10/06 08:36:30;;;;;;;;;;;;;;;25.39;45.53;95514.63;4854525;29;9452;-60
2022/10/06 08:38:59;;;;;;;;;;;;;;;25.38;45.73;95518.63;4879157;29;9315;-60
2022/10/06 08:41:33;;;;;;;;;;;;;;;25.39;46.12;95523.63;4927662;28;9008;-59
2022/10/06 08:44:19;;;;;;;;;;;;;;;25.37;46.32;95512.34;4940140;28;7319;-60
2022/10/06 08:46:54;;;;;;;;;;;;;;;25.38;46.54;95515.88;4943317;28;8648;-60
2022/10/06 08:49:26;;;;;;;;;;;;;;;25.37;46.39;95522.59;4917134;29;7527;-60
2022/10/06 08:52:27;;;;;;;;;;;;;;;25.37;46.42;95514.34;4930628;29;9239;-60
2022/10/06 08:55:17;;;;;;;;;;;;;;;25.37;46.65;95517.09;4931055;29;7338;-60
2022/10/06 08:57:59;;;;;;;;;;;;;;;25.37;46.48;95506.09;4926927;29;7045;-60
2022/10/06 09:00:37;;;;;;;;;;;;;;;25.37;46.11;95506.84;4990395;28;8785;-60
2022/10/06 09:03:06;;;;;;;;;;;;;;;25.38;46.27;95513.13;5007711;28;7317;-60
2022/10/06 09:05:44;;;;;;;;;;;;;;;25.39;45.73;95509.09;5001834;28;7396;-60
2022/10/06 09:09:02;;;;;;;;;;;;;;;25.39;45.75;95511.88;4981531;28;7482;-60
2022/10/06 09:12:01;;;;;;;;;;;;;;;25.38;45.70;95515.88;4945809;29;7378;-60
2022/10/06 09:14:38;;;;;;;;;;;;;;;25.37;46.49;95511.59;4926844;29;9167;-60
2022/10/06 09:17:26;;;;;;;;;;;;;;;25.36;46.06;95510.06;4951760;28;7933;-60
2022/10/06 09:20:02;;;;;;;;;;;;;;;25.36;45.81;95516.34;4941666;28;9041;-60
2022/10/06 09:22:33;;;;;;;;;;;;;;;25.37;45.58;95530.88;4945170;28;7357;-60
2022/10/06 09:25:21;;;;;;;;;;;;;;;25.37;46.15;95511.59;4937379;28;7266;-60
2022/10/06 09:27:53;;;;;;;;;;;;;;;25.37;46.29;95512.34;4952663;28;7245;-60
2022/10/06 09:30:23;;;;;;;;;;;;;;;25.37;45.76;95515.09;4932036;28;6993;-60
2022/10/06 09:33:02;;;;;;;;;;;;;;;25.39;45.52;95509.09;4945750;28;7609;-60
2022/10/06 09:35:30;;;;;;;;;;;;;;;25.39;45.53;95511.88;4954994;28;7105;-60
2022/10/06 09:38:11;;;;;;;;;;;;;;;25.40;45.99;95513.38;4938757;28;7266;-60
2022/10/06 09:40:50;;;;;;;;;;;;;;;25.40;45.70;95513.38;4958303;28;7556;-60
2022/10/06 09:43:27;;;;;;;;;;;;;;;25.39;46.21;95506.34;4942550;28;7798;-60
2022/10/06 09:46:16;;;;;;;;;;;;;;;25.38;45.94;95513.13;4933820;28;9425;-60
2022/10/06 09:48:44;;;;;;;;;;;;;;;25.40;45.70;95513.38;4994727;28;7308;-60
2022/10/06 09:51:18;;;;;;;;;;;;;;;25.43;45.32;95515.19;4997551;28;7586;-60
2022/10/06 09:54:13;;;;;;;;;;;;;;;25.42;46.27;95511.66;5022632;28;9201;-60
2022/10/06 09:56:52;;;;;;;;;;;;;;;25.41;45.66;95512.91;4996607;28;6987;-61
2022/10/06 09:59:40;;;;;;;;;;;;;;;25.43;46.08;95510.44;5012049;28;9188;-60
2022/10/06 10:02:25;;;;;;;;;;;;;;;25.43;45.56;95501.41;4991282;28;9654;-60
2022/10/06 10:05:19;;;;;;;;;;;;;;;25.42;46.28;95497.16;4990827;28;7161;-60
2022/10/06 10:07:59;;;;;;;;;;;;;;;25.43;45.69;95495.91;5024425;28;9463;-60
2022/10/06 10:10:38;;;;;;;;;;;;;;;25.44;45.91;95500.19;5010085;28;9622;-60
2022/10/06 10:13:28;;;;;;;;;;;;;;;25.45;46.40;95501.69;5007724;28;7832;-59
2022/10/06 10:16:03;;;;;;;;;;;;;;;25.46;45.43;95491.44;5010055;28;9422;-60
2022/10/06 10:18:49;;;;;;;;;;;;;;;25.46;45.47;95497.72;4991744;28;7438;-60
2022/10/06 10:21:28;;;;;;;;;;;;;;;25.46;45.59;95492.19;4992742;28;7645;-60
2022/10/06 10:24:14;;;;;;;;;;;;;;;25.48;45.42;95499.97;5005309;28;8609;-60
2022/10/06 10:26:59;;;;;;;;;;;;;;;25.48;46.10;95495.22;4988157;28;7439;-60
2022/10/06 10:30:22;;;;;;;;;;;;;;;25.49;45.41;95491.22;4985034;28;7002;-60
2022/10/06 10:33:20;;;;;;;;;;;;;;;25.49;46.39;95491.22;4914448;29;7339;-60
2022/10/06 10:35:56;;;;;;;;;;;;;;;25.49;45.82;95493.97;4908798;29;9531;-60
2022/10/06 10:38:25;;;;;;;;;;;;;;;25.49;45.84;95491.22;4906648;29;9583;-60
2022/10/06 10:41:03;;;;;;;;;;;;;;;25.49;45.25;95485.72;4910370;29;7569;-60
2022/10/06 10:43:36;;;;;;;;;;;;;;;25.52;45.90;95490.25;4903075;29;7350;-60
2022/10/06 10:46:15;;;;;;;;;;;;;;;25.56;45.84;95495.56;4921116;29;9473;-60
2022/10/06 10:48:44;;;;;;;;;;;;;;;25.57;45.97;95497.06;4906802;29;7329;-60
2022/10/06 10:51:23;;;;;;;;;;;;;;;25.57;45.81;95486.81;4916576;29;6933;-60
2022/10/06 10:54:14;;;;;;;;;;;;;;;25.57;45.67;95486.81;4908627;29;7403;-60
2022/10/06 10:56:48;;;;;;;;;;;;;;;25.57;45.19;95489.56;4918408;29;7255;-60
2022/10/06 11:02:22;;;;;;;;;;;;;;;25.58;45.06;95488.31;4917229;29;7108;-60
2022/10/06 11:05:00;;;;;;;;;;;;;;;25.58;45.35;95482.06;4901039;29;7244;-61
2022/10/06 11:07:52;;;;;;;;;;;;;;;25.58;45.41;95485.56;4970412;28;9017;-60
2022/10/06 11:10:52;;;;;;;;;;;;;;;25.59;44.94;95484.34;4998677;28;8956;-60
2022/10/06 11:14:02;;;;;;;;;;;;;;;25.61;45.96;95484.59;4997427;28;8576;-60
2022/10/06 11:17:02;;;;;;;;;;;;;;;25.63;46.14;95478.59;4999136;28;9446;-60
2022/10/06 11:19:53;;;;;;;;;;;;;;;25.64;45.90;95485.63;4987741;28;7242;-59
2022/10/06 11:22:40;;;;;;;;;;;;;;;25.66;45.72;95478.41;4994703;28;7413;-60
2022/10/06 11:25:21;;;;;;;;;;;;;;;25.66;45.43;95475.66;4990303;28;8300;-60
2022/10/06 11:27:56;;;;;;;;;;;;;;;25.67;45.24;95476.38;4984864;28;7403;-60
2022/10/06 11:30:26;;;;;;;;;;;;;;;25.68;45.38;95473.16;4997285;28;7797;-60
2022/10/06 11:33:00;;;;;;;;;;;;;;;25.69;45.39;95474.66;5007502;28;7285;-60
2022/10/06 11:35:34;;;;;;;;;;;;;;;25.69;45.71;95469.16;4990231;28;7335;-60
2022/10/06 11:38:39;;;;;;;;;;;;;;;25.72;45.72;95472.94;5011827;28;7087;-60
2022/10/06 11:41:48;;;;;;;;;;;;;;;25.75;45.63;95469.97;4991688;28;7226;-60
2022/10/06 11:44:26;;;;;;;;;;;;;;;25.78;45.27;95474.50;4990393;28;7173;-60
2022/10/06 11:47:02;;;;;;;;;;;;;;;25.77;45.65;95467.50;4990104;28;8989;-60
2022/10/06 11:49:27;;;;;;;;;;;;;;;25.77;45.04;95466.75;4991560;28;8472;-60
2022/10/06 11:52:06;;;;;;;;;;;;;;;25.77;45.13;95464.75;4994658;28;7066;-60
2022/10/06 11:54:52;;;;;;;;;;;;;;;25.82;45.82;95461.25;4991243;28;7227;-60
2022/10/06 11:57:22;;;;;;;;;;;;;;;25.83;44.63;95456.53;4998382;28;7460;-60
2022/10/06 12:00:16;;;;;;;;;;;;;;;25.83;45.41;95459.28;4977642;28;7206;-60
2022/10/06 12:02:44;;;;;;;;;;;;;;;25.84;45.45;95458.00;4921288;29;7068;-60
2022/10/06 12:05:14;;;;;;;;;;;;;;;25.88;44.74;95451.03;4915562;29;7202;-60
2022/10/06 12:08:15;;;;;;;;;;;;;;;25.88;45.48;95456.56;4919546;29;9056;-60
2022/10/06 12:10:49;;;;;;;;;;;;;;;25.86;44.87;95455.56;4907997;29;7425;-60
2022/10/06 12:13:29;;;;;;;;;;;;;;;25.90;45.04;95459.56;4913271;29;7120;-60
2022/10/06 12:16:05;;;;;;;;;;;;;;;25.91;45.22;95454.81;4899795;29;7439;-60
2022/10/06 12:18:34;;;;;;;;;;;;;;;25.91;44.68;95447.31;4898991;29;7231;-61
2022/10/06 12:21:12;;;;;;;;;;;;;;;25.93;44.97;95441.31;4909196;29;7120;-60
2022/10/06 12:23:49;;;;;;;;;;;;;;;25.94;44.81;95442.84;4917873;29;7093;-60
2022/10/06 12:26:37;;;;;;;;;;;;;;;25.93;45.29;95436.56;4919493;29;7491;-60
2022/10/06 12:29:39;;;;;;;;;;;;;;;25.92;45.83;95437.81;4914860;29;7276;-59
2022/10/06 12:33:04;;;;;;;;;;;;;;;25.94;44.67;95440.84;4917518;29;7984;-60
2022/10/06 12:35:34;;;;;;;;;;;;;;;25.94;45.54;95438.09;4851631;29;7267;-60
2022/10/06 12:38:04;;;;;;;;;;;;;;;25.95;44.80;95425.81;4855228;29;7385;-59
2022/10/06 12:40:50;;;;;;;;;;;;;;;25.97;45.24;95430.81;4878062;29;7180;-60
2022/10/06 12:43:19;;;;;;;;;;;;;;;26.02;45.29;95430.13;4911219;29;9602;-61
2022/10/06 12:45:56;;;;;;;;;;;;;;;26.03;45.10;95424.09;4912873;29;7332;-60
2022/10/06 12:48:37;;;;;;;;;;;;;;;26.05;45.33;95424.41;4912864;29;9070;-61
2022/10/06 12:51:29;;;;;;;;;;;;;;;26.06;45.50;95420.38;4912305;29;7144;-60
2022/10/06 12:54:18;;;;;;;;;;;;;;;26.06;44.95;95416.88;4907733;29;7321;-61
2022/10/06 12:57:12;;;;;;;;;;;;;;;26.09;45.73;95422.19;4912761;29;7212;-61
2022/10/06 12:59:53;;;;;;;;;;;;;;;26.11;45.16;95418.94;4950791;28;7603;-60
2022/10/06 13:02:29;;;;;;;;;;;;;;;26.13;45.29;95416.47;4954361;28;7007;-61
2022/10/06 13:05:13;;;;;;;;;;;;;;;26.12;45.71;95414.97;4952459;28;7459;-60
2022/10/06 13:08:01;;;;;;;;;;;;;;;26.13;45.50;95410.94;4937155;28;7725;-61
2022/10/06 13:10:28;;;;;;;;;;;;;;;26.14;45.12;95412.47;4999270;28;7259;-61
2022/10/06 13:12:58;;;;;;;;;;;;;;;26.14;44.87;95407.69;5000257;28;10174;-60
2022/10/06 13:15:34;;;;;;;;;;;;;;;26.16;45.27;95412.72;5022116;28;7426;-61
2022/10/06 13:18:09;;;;;;;;;;;;;;;26.20;44.99;95409.75;5019843;28;7224;-60
2022/10/06 13:20:45;;;;;;;;;;;;;;;26.20;45.73;95410.50;5007428;28;9583;-61
2022/10/06 13:23:14;;;;;;;;;;;;;;;26.23;45.12;95417.03;4999533;28;7393;-60
2022/10/06 13:25:44;;;;;;;;;;;;;;;26.25;45.08;95411.78;5016652;28;9306;-60
2022/10/06 13:28:23;;;;;;;;;;;;;;;26.27;45.07;95409.28;5020723;28;8373;-60
2022/10/06 13:31:02;;;;;;;;;;;;;;;26.28;44.86;95405.28;5003103;28;7173;-60
2022/10/06 13:33:39;;;;;;;;;;;;;;;26.31;45.25;95405.06;5010214;28;6932;-60
2022/10/06 13:36:10;;;;;;;;;;;;;;;26.34;45.08;95406.81;5001104;28;7158;-60
2022/10/06 13:38:40;;;;;;;;;;;;;;;26.36;45.40;95403.59;5007886;28;7824;-60
2022/10/06 13:41:18;;;;;;;;;;;;;;;26.41;45.75;95402.84;4989787;28;7510;-60
2022/10/06 13:43:59;;;;;;;;;;;;;;;26.42;45.15;95402.38;4994568;28;7305;-60
2022/10/06 13:46:36;;;;;;;;;;;;;;;26.44;44.83;95399.88;5015799;28;9144;-61
2022/10/06 13:49:14;;;;;;;;;;;;;;;26.43;45.73;95398.38;5004162;28;7866;-61
2022/10/06 13:51:50;;;;;;;;;;;;;;;26.47;45.31;95395.38;4995621;28;7115;-60
2022/10/06 13:54:23;;;;;;;;;;;;;;;26.47;45.91;95390.59;5021284;28;7282;-60
2022/10/06 13:56:58;;;;;;;;;;;;;;;26.49;45.73;95384.63;5011076;28;7235;-60
2022/10/06 13:59:38;;;;;;;;;;;;;;;26.51;45.36;95385.59;4999126;28;9081;-60
2022/10/06 14:02:51;;;;;;;;;;;;;;;26.53;45.41;95383.13;4988779;28;9103;-60